TRA92V EHRD-EGSS
Flight info
| Callsign | TRA92V |
|---|---|
| Flight time | 0h 40m |
| Altitude | 24000 |
| Route | ABNED L980 XAMAN |
| Aircraft | B738/M-SDE2E3FGHIRWXY/LB1 |
Departure
| Time | 2026-05-06 17:44 |
|---|---|
| Airport | Rotterdam The Hague Airport (EHRD) |
Arrival
| Time | 2026-05-06 18:25 |
|---|---|
| Airport | London Stansted Airport (EGSS) |
| Time | Latitude | Longitude | Altitude | Speed | Heading |
|---|---|---|---|---|---|
| 2026-05-06 17:27 | 51.95065 | 4.43373 | 0 ft | 0 kts | 327° |
| 2026-05-06 17:40 | 51.95066 | 4.43372 | 0 ft | 1 kts | 328° |
| 2026-05-06 17:40 | 51.95079 | 4.43362 | 0 ft | 3 kts | 337° |
| 2026-05-06 17:41 | 51.95111 | 4.43375 | 0 ft | 6 kts | 37° |
| 2026-05-06 17:41 | 51.95137 | 4.43425 | 0 ft | 6 kts | 53° |
| 2026-05-06 17:41 | 51.95168 | 4.43487 | 0 ft | 7 kts | 37° |
| 2026-05-06 17:41 | 51.95214 | 4.43468 | 0 ft | 7 kts | 330° |
| 2026-05-06 17:42 | 51.95241 | 4.43409 | 0 ft | 7 kts | 264° |
| 2026-05-06 17:42 | 51.95211 | 4.43320 | 0 ft | 10 kts | 237° |
| 2026-05-06 17:42 | 51.95168 | 4.43211 | 0 ft | 13 kts | 238° |
| 2026-05-06 17:42 | 51.95123 | 4.43065 | 0 ft | 16 kts | 245° |
| 2026-05-06 17:43 | 51.95139 | 4.42922 | 0 ft | 14 kts | 319° |
| 2026-05-06 17:43 | 51.95224 | 4.42874 | 1 ft | 13 kts | 33° |
| 2026-05-06 17:43 | 51.95278 | 4.42998 | 0 ft | 16 kts | 58° |
| 2026-05-06 17:43 | 51.95462 | 4.43457 | -1 ft | 84 kts | 57° |
| 2026-05-06 17:44 | 51.95896 | 4.44553 | -1 ft | 145 kts | 58° |
| 2026-05-06 17:44 | 51.96474 | 4.46036 | 488 ft | 157 kts | 58° |
| 2026-05-06 17:44 | 51.97020 | 4.47537 | 1389 ft | 152 kts | 58° |
| 2026-05-06 17:44 | 51.97552 | 4.49034 | 2046 ft | 163 kts | 59° |
| 2026-05-06 17:45 | 51.98247 | 4.50691 | 2312 ft | 192 kts | 45° |
| 2026-05-06 17:45 | 51.99423 | 4.51875 | 2640 ft | 209 kts | 20° |
| 2026-05-06 17:45 | 52.00873 | 4.52115 | 2976 ft | 218 kts | 356° |
| 2026-05-06 17:45 | 52.02276 | 4.51221 | 2988 ft | 222 kts | 326° |
| 2026-05-06 17:46 | 52.03283 | 4.49269 | 2994 ft | 236 kts | 298° |
| 2026-05-06 17:46 | 52.03625 | 4.46663 | 3011 ft | 241 kts | 269° |
| 2026-05-06 17:46 | 52.03128 | 4.44075 | 3008 ft | 243 kts | 236° |
| 2026-05-06 17:46 | 52.01912 | 4.42233 | 3006 ft | 242 kts | 210° |
| 2026-05-06 17:47 | 52.00484 | 4.40776 | 3020 ft | 244 kts | 213° |
| 2026-05-06 17:47 | 51.99056 | 4.39205 | 3354 ft | 250 kts | 214° |
| 2026-05-06 17:47 | 51.97664 | 4.37614 | 4232 ft | 245 kts | 214° |
| 2026-05-06 17:47 | 51.96408 | 4.35767 | 4679 ft | 246 kts | 241° |
| 2026-05-06 17:48 | 51.95938 | 4.33054 | 4931 ft | 264 kts | 265° |
| 2026-05-06 17:48 | 51.95736 | 4.30042 | 4916 ft | 271 kts | 266° |
| 2026-05-06 17:48 | 51.95533 | 4.26977 | 4906 ft | 275 kts | 266° |
| 2026-05-06 17:48 | 51.95312 | 4.23905 | 4897 ft | 273 kts | 265° |
| 2026-05-06 17:49 | 51.95075 | 4.20858 | 4911 ft | 273 kts | 265° |
| 2026-05-06 17:49 | 51.94827 | 4.17811 | 4903 ft | 273 kts | 265° |
| 2026-05-06 17:49 | 51.94571 | 4.14772 | 4906 ft | 272 kts | 264° |
| 2026-05-06 17:49 | 51.94312 | 4.11732 | 4908 ft | 272 kts | 264° |
| 2026-05-06 17:50 | 51.94054 | 4.08729 | 4946 ft | 274 kts | 264° |
| 2026-05-06 17:50 | 51.93769 | 4.05660 | 5467 ft | 278 kts | 263° |
| 2026-05-06 17:50 | 51.93469 | 4.02566 | 6391 ft | 276 kts | 263° |
| 2026-05-06 17:50 | 51.93169 | 3.99495 | 7199 ft | 278 kts | 263° |
| 2026-05-06 17:51 | 51.92864 | 3.96373 | 7913 ft | 282 kts | 263° |
| 2026-05-06 17:51 | 51.92573 | 3.93399 | 8679 ft | 282 kts | 263° |
| 2026-05-06 17:51 | 51.92270 | 3.90303 | 9438 ft | 285 kts | 263° |
| 2026-05-06 17:51 | 51.91964 | 3.87173 | 10164 ft | 287 kts | 263° |
| 2026-05-06 17:52 | 51.91641 | 3.83874 | 10432 ft | 308 kts | 263° |
| 2026-05-06 17:52 | 51.91297 | 3.80363 | 10612 ft | 329 kts | 262° |
| 2026-05-06 17:52 | 51.90925 | 3.76576 | 10791 ft | 349 kts | 263° |
| 2026-05-06 17:52 | 51.90534 | 3.72621 | 11146 ft | 361 kts | 262° |
| 2026-05-06 17:53 | 51.90173 | 3.68990 | 11747 ft | 364 kts | 262° |
| 2026-05-06 17:53 | 51.89801 | 3.65284 | 12365 ft | 366 kts | 262° |
| 2026-05-06 17:53 | 51.89413 | 3.61412 | 13104 ft | 367 kts | 262° |
| 2026-05-06 17:53 | 51.89104 | 3.58343 | 13614 ft | 370 kts | 262° |
| 2026-05-06 17:54 | 51.88740 | 3.54729 | 14270 ft | 369 kts | 262° |
| 2026-05-06 17:54 | 51.88383 | 3.51198 | 14804 ft | 373 kts | 262° |
| 2026-05-06 17:54 | 51.88026 | 3.47670 | 15324 ft | 378 kts | 261° |
| 2026-05-06 17:54 | 51.87601 | 3.43475 | 16030 ft | 378 kts | 261° |
| 2026-05-06 17:55 | 51.87176 | 3.39308 | 16787 ft | 378 kts | 261° |
| 2026-05-06 17:55 | 51.86749 | 3.35124 | 17573 ft | 378 kts | 261° |
| 2026-05-06 17:55 | 51.86316 | 3.30900 | 18083 ft | 385 kts | 261° |
| 2026-05-06 17:55 | 51.85874 | 3.26598 | 18510 ft | 392 kts | 261° |
| 2026-05-06 17:56 | 51.85431 | 3.22309 | 19173 ft | 390 kts | 261° |
| 2026-05-06 17:56 | 51.84981 | 3.17977 | 19768 ft | 391 kts | 261° |
| 2026-05-06 17:56 | 51.84593 | 3.13599 | 20203 ft | 397 kts | 263° |
| 2026-05-06 17:56 | 51.84302 | 3.09139 | 20672 ft | 402 kts | 264° |
| 2026-05-06 17:57 | 51.84038 | 3.04616 | 21149 ft | 404 kts | 264° |
| 2026-05-06 17:57 | 51.83773 | 3.00073 | 21667 ft | 407 kts | 264° |
| 2026-05-06 17:57 | 51.83496 | 2.95510 | 21936 ft | 411 kts | 264° |
| 2026-05-06 17:57 | 51.83204 | 2.90885 | 21940 ft | 414 kts | 264° |
| 2026-05-06 17:58 | 51.82905 | 2.86277 | 21955 ft | 421 kts | 264° |
| 2026-05-06 17:58 | 51.82593 | 2.81553 | 21951 ft | 423 kts | 264° |
| 2026-05-06 17:58 | 51.82280 | 2.76843 | 21933 ft | 420 kts | 264° |
| 2026-05-06 17:58 | 51.81969 | 2.72178 | 21940 ft | 417 kts | 264° |
| 2026-05-06 17:59 | 51.81657 | 2.67550 | 21944 ft | 418 kts | 264° |
| 2026-05-06 17:59 | 51.81340 | 2.62885 | 21961 ft | 421 kts | 263° |
| 2026-05-06 17:59 | 51.81022 | 2.58253 | 21950 ft | 419 kts | 263° |
| 2026-05-06 17:59 | 51.80705 | 2.53677 | 21940 ft | 420 kts | 263° |
| 2026-05-06 18:00 | 51.80405 | 2.49370 | 21961 ft | 421 kts | 263° |
| 2026-05-06 18:00 | 51.80115 | 2.45212 | 21966 ft | 421 kts | 263° |
| 2026-05-06 18:00 | 51.79848 | 2.41407 | 21971 ft | 421 kts | 263° |
| 2026-05-06 18:00 | 51.79610 | 2.38019 | 21969 ft | 421 kts | 263° |
| 2026-05-06 18:01 | 51.79333 | 2.34130 | 21961 ft | 422 kts | 263° |
| 2026-05-06 18:01 | 51.79004 | 2.29472 | 21959 ft | 422 kts | 263° |
| 2026-05-06 18:01 | 51.78734 | 2.24749 | 21945 ft | 422 kts | 268° |
| 2026-05-06 18:01 | 51.78860 | 2.20019 | 21795 ft | 419 kts | 276° |
| 2026-05-06 18:02 | 51.79431 | 2.15506 | 21282 ft | 412 kts | 283° |
| 2026-05-06 18:02 | 51.80126 | 2.11067 | 20877 ft | 403 kts | 283° |
| 2026-05-06 18:02 | 51.80797 | 2.06731 | 20473 ft | 394 kts | 283° |
| 2026-05-06 18:02 | 51.81446 | 2.02471 | 20092 ft | 386 kts | 283° |
| 2026-05-06 18:03 | 51.82075 | 1.98291 | 19721 ft | 380 kts | 283° |
| 2026-05-06 18:03 | 51.82687 | 1.94177 | 19357 ft | 374 kts | 283° |
| 2026-05-06 18:03 | 51.83289 | 1.90096 | 19002 ft | 374 kts | 283° |
| 2026-05-06 18:03 | 51.83892 | 1.85993 | 18640 ft | 376 kts | 283° |
| 2026-05-06 18:04 | 51.84492 | 1.81891 | 18267 ft | 375 kts | 283° |
| 2026-05-06 18:04 | 51.85082 | 1.77851 | 17854 ft | 373 kts | 283° |
| 2026-05-06 18:04 | 51.85674 | 1.73780 | 17464 ft | 371 kts | 283° |
| 2026-05-06 18:04 | 51.86262 | 1.69727 | 17086 ft | 369 kts | 283° |
| 2026-05-06 18:05 | 51.86838 | 1.65746 | 16723 ft | 367 kts | 283° |
| 2026-05-06 18:05 | 51.87414 | 1.61758 | 16365 ft | 364 kts | 283° |
| 2026-05-06 18:05 | 51.87988 | 1.57773 | 16006 ft | 363 kts | 283° |
| 2026-05-06 18:05 | 51.88558 | 1.53804 | 15656 ft | 361 kts | 283° |
| 2026-05-06 18:06 | 51.89123 | 1.49859 | 15303 ft | 359 kts | 283° |
| 2026-05-06 18:06 | 51.89685 | 1.45932 | 14948 ft | 357 kts | 283° |
| 2026-05-06 18:06 | 51.90235 | 1.42071 | 14601 ft | 356 kts | 283° |
| 2026-05-06 18:06 | 51.90790 | 1.38168 | 14260 ft | 356 kts | 283° |
| 2026-05-06 18:07 | 51.91344 | 1.34261 | 13913 ft | 356 kts | 283° |
| 2026-05-06 18:07 | 51.91896 | 1.30359 | 13538 ft | 355 kts | 283° |
| 2026-05-06 18:07 | 51.92446 | 1.26458 | 13158 ft | 354 kts | 283° |
| 2026-05-06 18:07 | 51.92992 | 1.22580 | 12796 ft | 353 kts | 283° |
| 2026-05-06 18:08 | 51.93534 | 1.18719 | 12446 ft | 351 kts | 283° |
| 2026-05-06 18:08 | 51.94074 | 1.14866 | 12097 ft | 349 kts | 283° |
| 2026-05-06 18:08 | 51.94605 | 1.11062 | 11753 ft | 344 kts | 283° |
| 2026-05-06 18:08 | 51.95119 | 1.07369 | 11420 ft | 337 kts | 283° |
| 2026-05-06 18:09 | 51.95630 | 1.03689 | 11092 ft | 331 kts | 283° |
| 2026-05-06 18:09 | 51.96127 | 1.00107 | 10763 ft | 321 kts | 283° |
| 2026-05-06 18:09 | 51.96607 | 0.96629 | 10447 ft | 312 kts | 283° |
| 2026-05-06 18:09 | 51.97075 | 0.93241 | 10153 ft | 303 kts | 283° |
| 2026-05-06 18:10 | 51.97528 | 0.89950 | 9912 ft | 293 kts | 283° |
| 2026-05-06 18:10 | 51.97953 | 0.86854 | 9917 ft | 274 kts | 283° |
| 2026-05-06 18:10 | 51.98362 | 0.83866 | 9414 ft | 275 kts | 283° |
| 2026-05-06 18:10 | 51.98773 | 0.80869 | 9041 ft | 272 kts | 283° |
| 2026-05-06 18:11 | 51.99179 | 0.77897 | 8760 ft | 267 kts | 283° |
| 2026-05-06 18:11 | 51.99570 | 0.75023 | 8488 ft | 261 kts | 283° |
| 2026-05-06 18:11 | 51.99960 | 0.72164 | 8234 ft | 260 kts | 283° |
| 2026-05-06 18:11 | 52.00349 | 0.69302 | 7977 ft | 259 kts | 283° |
| 2026-05-06 18:12 | 52.00737 | 0.66442 | 7720 ft | 259 kts | 283° |
| 2026-05-06 18:12 | 52.01122 | 0.63590 | 7466 ft | 259 kts | 283° |
| 2026-05-06 18:12 | 52.01505 | 0.60736 | 7204 ft | 259 kts | 282° |
| 2026-05-06 18:12 | 52.01589 | 0.57814 | 6952 ft | 261 kts | 265° |
| 2026-05-06 18:13 | 52.01383 | 0.54896 | 6713 ft | 261 kts | 265° |
| 2026-05-06 18:13 | 52.01205 | 0.51998 | 6457 ft | 262 kts | 265° |
| 2026-05-06 18:13 | 52.01038 | 0.49052 | 6171 ft | 263 kts | 265° |
| 2026-05-06 18:13 | 52.00877 | 0.46066 | 6035 ft | 268 kts | 265° |
| 2026-05-06 18:14 | 52.00749 | 0.43052 | 5999 ft | 266 kts | 265° |
| 2026-05-06 18:14 | 52.00637 | 0.40124 | 5979 ft | 255 kts | 265° |
| 2026-05-06 18:14 | 52.00527 | 0.37306 | 5979 ft | 245 kts | 265° |
| 2026-05-06 18:14 | 52.00418 | 0.34576 | 5992 ft | 241 kts | 265° |
| 2026-05-06 18:15 | 52.00308 | 0.31868 | 5989 ft | 241 kts | 265° |
| 2026-05-06 18:15 | 52.00188 | 0.29147 | 6004 ft | 243 kts | 261° |
| 2026-05-06 18:15 | 51.99546 | 0.26652 | 6008 ft | 241 kts | 231° |
| 2026-05-06 18:15 | 51.98431 | 0.24693 | 5996 ft | 242 kts | 222° |
| 2026-05-06 18:16 | 51.97196 | 0.22824 | 6011 ft | 242 kts | 221° |
| 2026-05-06 18:16 | 51.95935 | 0.20964 | 5722 ft | 251 kts | 221° |
| 2026-05-06 18:16 | 51.94643 | 0.19043 | 5373 ft | 253 kts | 222° |
| 2026-05-06 18:16 | 51.93353 | 0.17111 | 5000 ft | 252 kts | 223° |
| 2026-05-06 18:17 | 51.92072 | 0.15184 | 4640 ft | 251 kts | 223° |
| 2026-05-06 18:17 | 51.90801 | 0.13266 | 4278 ft | 249 kts | 224° |
| 2026-05-06 18:17 | 51.89540 | 0.11363 | 3927 ft | 247 kts | 224° |
| 2026-05-06 18:17 | 51.88286 | 0.09473 | 3587 ft | 246 kts | 224° |
| 2026-05-06 18:18 | 51.87036 | 0.07588 | 3252 ft | 246 kts | 224° |
| 2026-05-06 18:18 | 51.85805 | 0.05732 | 3003 ft | 241 kts | 225° |
| 2026-05-06 18:18 | 51.84612 | 0.03916 | 2985 ft | 229 kts | 225° |
| 2026-05-06 18:18 | 51.83492 | 0.02208 | 2920 ft | 214 kts | 225° |
| 2026-05-06 18:19 | 51.82455 | 0.00629 | 2863 ft | 200 kts | 225° |
| 2026-05-06 18:19 | 51.81452 | -0.00899 | 2879 ft | 197 kts | 225° |
| 2026-05-06 18:19 | 51.80392 | -0.02268 | 2803 ft | 196 kts | 204° |
| 2026-05-06 18:19 | 51.79075 | -0.02346 | 2766 ft | 190 kts | 156° |
| 2026-05-06 18:20 | 51.78026 | -0.01162 | 2795 ft | 183 kts | 134° |
| 2026-05-06 18:20 | 51.77133 | 0.00276 | 2714 ft | 184 kts | 128° |
| 2026-05-06 18:20 | 51.76496 | 0.02060 | 2619 ft | 180 kts | 103° |
| 2026-05-06 18:20 | 51.76409 | 0.03997 | 2523 ft | 174 kts | 77° |
| 2026-05-06 18:21 | 51.76840 | 0.05787 | 2508 ft | 170 kts | 55° |
| 2026-05-06 18:21 | 51.77597 | 0.07214 | 2508 ft | 166 kts | 39° |
| 2026-05-06 18:21 | 51.78459 | 0.08438 | 2496 ft | 165 kts | 39° |
| 2026-05-06 18:21 | 51.79308 | 0.09685 | 2496 ft | 165 kts | 40° |
| 2026-05-06 18:22 | 51.80159 | 0.10960 | 2359 ft | 169 kts | 40° |
| 2026-05-06 18:22 | 51.81022 | 0.12257 | 2146 ft | 168 kts | 40° |
| 2026-05-06 18:22 | 51.81853 | 0.13507 | 1919 ft | 158 kts | 39° |
| 2026-05-06 18:22 | 51.82626 | 0.14669 | 1754 ft | 144 kts | 38° |
| 2026-05-06 18:23 | 51.83254 | 0.15611 | 1552 ft | 141 kts | 38° |
| 2026-05-06 18:23 | 51.83961 | 0.16672 | 1391 ft | 140 kts | 38° |
| 2026-05-06 18:23 | 51.84677 | 0.17746 | 1193 ft | 140 kts | 39° |
| 2026-05-06 18:23 | 51.85392 | 0.18820 | 1021 ft | 143 kts | 39° |
| 2026-05-06 18:24 | 51.86133 | 0.19925 | 820 ft | 146 kts | 39° |
| 2026-05-06 18:24 | 51.86889 | 0.21045 | 626 ft | 148 kts | 39° |
| 2026-05-06 18:24 | 51.87636 | 0.22192 | 394 ft | 146 kts | 39° |
| 2026-05-06 18:24 | 51.88338 | 0.23233 | 332 ft | 119 kts | 42° |
| 2026-05-06 18:25 | 51.88792 | 0.23915 | 336 ft | 59 kts | 42° |
| 2026-05-06 18:25 | 51.89028 | 0.24271 | 339 ft | 43 kts | 43° |
| 2026-05-06 18:25 | 51.89216 | 0.24555 | 336 ft | 27 kts | 45° |
| 2026-05-06 18:25 | 51.89205 | 0.24792 | 339 ft | 23 kts | 132° |
| 2026-05-06 18:26 | 51.89151 | 0.24917 | 344 ft | 12 kts | 93° |
| 2026-05-06 18:26 | 51.89198 | 0.25016 | 345 ft | 11 kts | 42° |
| 2026-05-06 18:26 | 51.89238 | 0.25120 | 350 ft | 11 kts | 76° |
| 2026-05-06 18:26 | 51.89206 | 0.25223 | 346 ft | 11 kts | 140° |
| 2026-05-06 18:27 | 51.89147 | 0.25292 | 342 ft | 10 kts | 139° |
| 2026-05-06 18:27 | 51.89089 | 0.25389 | 336 ft | 13 kts | 136° |
| 2026-05-06 18:27 | 51.89029 | 0.25498 | 339 ft | 13 kts | 133° |
| 2026-05-06 18:27 | 51.88981 | 0.25548 | 337 ft | 5 kts | 198° |
| 2026-05-06 18:28 | 51.88952 | 0.25507 | 336 ft | 3 kts | 223° |
| 2026-05-06 18:28 | 51.88946 | 0.25499 | 336 ft | 0 kts | 223° |